Flight Track Log - Related Links

Times and Time Zones

All times are in EDT time to prevent confusion due to time zone crossing. See the SWA1202 flight status page for this flight to view local times or setup timezone preferences in your user account.

Time Position Orientation Groundspeed Altitude Reporting Facility
EDT Latitude Longitude Course Direction KTS MPH feet Rate Location/Type
Thu 01:26:21 PM 32.8167 -96.8167 140° Southeast 181 208 2,800  Level Dallas / Fort Worth TRACON
Thu 01:27:15 PM 32.7667 -96.7667 140° Southeast 237 273 4,900 1,096 Climbing Dallas / Fort Worth TRACON
Thu 01:28:16 PM 32.7000 -96.7833 192° South 271 312 4,900 1,670 Level Dallas / Fort Worth TRACON
Thu 01:29:10 PM 32.6500 -96.8333 220° Southwest 262 302 8,100 3,138 Climbing Dallas / Fort Worth TRACON
Thu 01:30:05 PM 32.6667 -96.9167 283° West 274 315 10,600 1,672 Climbing Dallas / Fort Worth TRACON
Thu 01:31:12 PM 32.7000 -97.0167 292° West 350 403 11,500 1,772 Climbing Dallas / Fort Worth TRACON
Thu 01:33:18 PM 32.7519 -97.2331 286° West 368 423 16,300 2,323 Climbing Fort Worth Center
Thu 01:34:18 PM 32.7833 -97.3739 285° West 368 423 18,700 2,050 Climbing Fort Worth Center
Thu 01:35:18 PM 32.8083 -97.4828 285° West 374 430 20,400 1,800 Climbing Fort Worth Center
Thu 01:36:18 PM 32.8394 -97.6236 285° West 379 436 22,300 1,750 Climbing Fort Worth Center
Thu 01:37:18 PM 32.8664 -97.7497 284° West 396 456 23,900 1,450 Climbing Fort Worth Center
Thu 01:38:18 PM 32.8658 -97.8883 270° West 409 471 25,200 1,500 Climbing Fort Worth Center
Thu 01:39:18 PM 32.8653 -98.0194 270° West 409 471 26,900 1,950 Climbing Fort Worth Center
Thu 01:40:18 PM 32.8625 -98.1481 269° West 399 459 29,100 2,150 Climbing Fort Worth Center
Thu 01:41:18 PM 32.8617 -98.2717 270° West 381 438 31,200 1,600 Climbing Fort Worth Center
Thu 01:42:18 PM 32.8608 -98.3878 270° West 361 415 32,300 1,200 Climbing Fort Worth Center
Thu 01:43:18 PM 32.8578 -98.4992 268° West 361 415 33,600 850 Climbing Fort Worth Center
Thu 01:44:18 PM 32.8567 -98.6153 269° West 349 402 34,000 200 Climbing Fort Worth Center
Thu 01:45:18 PM 32.8556 -98.7339 269° West 349 402 34,000  Level Fort Worth Center
Thu 01:46:18 PM 32.8522 -98.8478 268° West 349 402 34,000  Level Fort Worth Center
Thu 01:47:18 PM 32.8508 -98.9664 269° West 349 402 34,000  Level Fort Worth Center
Thu 01:48:18 PM 32.8494 -99.0850 269° West 354 407 34,000  Level Fort Worth Center
Thu 01:49:18 PM 32.8478 -99.2011 269° West 354 407 34,000  Level Fort Worth Center
Thu 01:50:18 PM 32.8458 -99.3225 269° West 359 413 34,000  Level Fort Worth Center
Thu 01:51:18 PM 32.8419 -99.4386 268° West 359 413 34,000  Level Fort Worth Center
Thu 01:52:18 PM 32.8400 -99.5572 269° West 365 420 34,000  Level Fort Worth Center
Thu 01:53:19 PM 32.8672 -99.6692 286° West 357 411 34,000  Level Fort Worth Center
Thu 01:54:18 PM 32.9111 -99.7842 294° West 362 417 34,000  Level Fort Worth Center
Thu 01:55:18 PM 32.9531 -99.8842 297° West 372 428 34,000  Level Fort Worth Center
Thu 01:56:18 PM 32.9925 -99.9942 293° West 372 428 34,000  Level Fort Worth Center
Thu 01:57:18 PM 33.0339 -100.1069 294° West 372 428 34,000  Level Fort Worth Center
Thu 01:58:18 PM 33.0775 -100.2172 295° West 377 434 34,000  Level Fort Worth Center
Thu 01:59:18 PM 33.1208 -100.3303 295° West 377 434 34,000  Level Fort Worth Center
Thu 02:00:19 PM 33.1619 -100.4408 294° West 377 434 34,000  Level Fort Worth Center
Thu 02:01:18 PM 33.2053 -100.5542 295° West 377 434 34,000  Level Fort Worth Center
Thu 02:02:18 PM 33.2461 -100.6697 293° West 377 434 34,000  Level Fort Worth Center
Thu 02:03:18 PM 33.2892 -100.7806 295° West 377 434 34,000  Level Fort Worth Center
Thu 02:04:18 PM 33.3297 -100.8917 294° West 377 434 34,000  Level Fort Worth Center
Thu 02:05:18 PM 33.3725 -101.0028 295° West 377 434 34,000  Level Fort Worth Center
Thu 02:06:18 PM 33.4131 -101.1164 293° West 377 434 34,000  Level Fort Worth Center
Thu 02:07:18 PM 33.4558 -101.2278 295° West 377 434 34,000  Level Fort Worth Center
Thu 02:08:18 PM 33.5019 -101.3542 294° West 377 434 34,000  Level Fort Worth Center
Thu 02:09:18 PM 33.5419 -101.4681 293° West 378 435 34,000  Level Fort Worth Center
Thu 02:10:18 PM 33.5864 -101.5822 295° West 378 435 34,000  Level Fort Worth Center
Thu 02:11:18 PM 33.6264 -101.6914 294° West 372 428 34,000  Level Fort Worth Center
Thu 02:12:18 PM 33.6683 -101.8083 293° West 372 428 34,000  Level Fort Worth Center
Thu 02:13:18 PM 33.7144 -101.9231 296° West 372 428 34,000  Level Fort Worth Center
Thu 02:14:18 PM 33.7903 -102.0144 315° West 378 435 34,000  Level Fort Worth Center
Thu 02:15:18 PM 33.8703 -102.1061 316° Northwest 383 441 34,000  Level Fort Worth Center
Thu 02:17:48 PM 34.0561 -102.3225 316° Northwest 398 458 34,000  Level Albuquerque Center
Thu 02:18:50 PM 34.1358 -102.4139 317° Northwest 397 457 34,000  Level Albuquerque Center
Thu 02:19:52 PM 34.2258 -102.5203 316° Northwest 395 455 34,000  Level Albuquerque Center
Thu 02:20:54 PM 34.3053 -102.6142 316° Northwest 397 457 34,000  Level Albuquerque Center
Thu 02:21:56 PM 34.3856 -102.7083 316° Northwest 399 459 34,000  Level Albuquerque Center
Thu 02:22:58 PM 34.4653 -102.8028 316° Northwest 399 459 34,000  Level Albuquerque Center
Thu 02:24:00 PM 34.5061 -102.9208 293° West 368 423 34,000  Level Albuquerque Center
Thu 02:25:00 PM 34.5209 -103.0449 278° West  Level FlightAware Approximate
Thu 02:25:02 PM 34.5211 -103.0453 278° West 366 421 34,000  Level Albuquerque Center
Thu 02:26:04 PM 34.5378 -103.1906 278° West 369 425 34,000  Level Albuquerque Center
Thu 02:27:06 PM 34.5531 -103.3142 279° West 368 423 34,000  Level Albuquerque Center
Thu 02:28:07 PM 34.5683 -103.4378 279° West 367 422 34,000  Level Albuquerque Center
Thu 02:29:09 PM 34.5817 -103.5617 277° West 367 422 34,000  Level Albuquerque Center
Thu 02:30:11 PM 34.6086 -103.6844 285° West 372 428 34,000  Level Albuquerque Center
Thu 02:31:13 PM 34.6383 -103.8047 287° West 369 425 34,000  Level Albuquerque Center
Thu 02:32:15 PM 34.6678 -103.9258 286° West 370 426 34,000  Level Albuquerque Center
Thu 02:33:17 PM 34.6978 -104.0456 287° West 368 423 34,000  Level Albuquerque Center
Thu 02:34:19 PM 34.7317 -104.1861 286° West 367 422 34,000  Level Albuquerque Center
Thu 02:35:21 PM 34.7608 -104.3058 287° West 365 420 34,000  Level Albuquerque Center
Thu 02:36:23 PM 34.7894 -104.4261 286° West 365 420 34,000  Level Albuquerque Center
Thu 02:37:25 PM 34.8097 -104.5469 282° West 364 419 34,000  Level Albuquerque Center
Thu 02:38:27 PM 34.8231 -104.6692 278° West 361 415 34,000  Level Albuquerque Center
Thu 02:39:28 PM 34.8358 -104.7908 277° West 360 414 34,000  Level Albuquerque Center
Thu 02:40:30 PM 34.8478 -104.9117 277° West 357 411 34,000 -194 Level Albuquerque Center
Thu 02:41:32 PM 34.8608 -105.0325 278° West 356 410 33,600 -1,355 Descending Albuquerque Center
Thu 02:42:34 PM 34.8725 -105.1489 277° West 348 400 31,200 -2,419 Descending Albuquerque Center
Thu 02:43:36 PM 34.8856 -105.2703 278° West 353 406 28,600 -2,516 Descending Albuquerque Center
Thu 02:44:38 PM 34.8994 -105.4136 277° West 359 413 26,000 -2,274 Descending Albuquerque Center
Thu 02:45:40 PM 34.9119 -105.5272 278° West 343 395 23,900 -1,951 Descending Albuquerque Center
Thu 02:46:41 PM 34.9214 -105.6364 276° West 327 376 22,000 -2,047 Descending Albuquerque Center
Thu 02:47:49 PM 34.9328 -105.7678 276° West 341 392 19,500 -2,081 Descending Albuquerque Center
Thu 02:48:45 PM 34.9453 -105.8642 279° West 335 386 17,700 -1,899 Descending Albuquerque Center
Thu 02:49:08 PM 34.9461 -105.9122 271° West 328 377 17,000 -2,032 Descending Albuquerque Center
Thu 02:49:47 PM 34.9494 -105.9772 274° West 326 375 15,600 -2,100 Descending Albuquerque Center
Thu 02:50:08 PM 34.9506 -106.0200 272° West 317 365 14,900 -1,548 Descending Albuquerque Center
Thu 02:50:49 PM 34.9508 -106.0806 270° West 312 359 14,000 -1,574 Descending Albuquerque Center
Thu 02:51:09 PM 34.9517 -106.1208 271° West 299 344 13,300 -1,742 Descending Albuquerque Center
Thu 02:51:51 PM 34.9553 -106.1806 274° West 300 345 12,200 -1,731 Descending Albuquerque Center
Thu 02:52:53 PM 34.9586 -106.2803 272° West 297 342 10,300 -1,268 Descending Albuquerque Center
Thu 02:53:54 PM 34.9589 -106.3753 270° West 290 334 9,600 -537 Descending Albuquerque Center
Thu 02:54:56 PM 34.9544 -106.4642 267° West 276 318 9,200 -947 Descending Albuquerque Center
Thu 02:55:48 PM 34.9528 -106.5483 269° West 230 265 7,800 -964 Descending Albuquerque Center
Thu 02:56:48 PM 34.9494 -106.6269 267° West 224 258 7,400 -595 Descending Albuquerque Center
Thu 02:57:49 PM 34.9761 -106.6822 300° West 182 209 6,600 -738 Descending Albuquerque Center
Thu 02:58:50 PM 35.0086 -106.6481 41° Northeast 146 168 5,900 -526 Descending Albuquerque Center
Thu 03:00:06 PM 35.0458 -106.5986 47° Northeast 167 192 5,400 -395 Descending Albuquerque Center

Login

Don't have an account? Register now (free) for customized features, flight alerts, and more!